Time;durP1;ratioP1;P1;durP2;ratioP2;P2;SDS_P1;SDS_P2;PMS_P1;PMS_P2;Temp;Humidity;BMP_temperature;BMP_pressure;BME280_temperature;BME280_humidity;BME280_pressure;Samples;Min_cycle;Max_cycle;Signal;HPM_P1;HPM_P2
2022/07/01 00:00:44;;;;;;;9.18;4.93;;;21.30;99.90;;;;;;4856238;29;20101;-63
2022/07/01 00:03:11;;;;;;;13.93;5.18;;;21.20;99.90;;;;;;4847034;29;20141;-61
2022/07/01 00:05:39;;;;;;;9.82;5.45;;;21.20;99.90;;;;;;4836899;29;20512;-62
2022/07/01 00:08:06;;;;;;;14.57;5.15;;;21.20;99.90;;;;;;4860128;29;20418;-63
2022/07/01 00:10:37;;;;;;;13.35;5.28;;;21.20;99.90;;;;;;4856122;29;20050;-63
2022/07/01 00:13:06;;;;;;;8.43;5.25;;;21.20;99.90;;;;;;4852127;29;20049;-65
2022/07/01 00:15:33;;;;;;;8.40;5.57;;;21.10;99.90;;;;;;4855266;29;20420;-62
2022/07/01 00:18:02;;;;;;;9.30;5.30;;;21.00;99.90;;;;;;4867230;29;20476;-62
2022/07/01 00:20:29;;;;;;;12.23;5.05;;;21.00;99.90;;;;;;4843536;29;20780;-63
2022/07/01 00:22:56;;;;;;;9.02;5.55;;;21.10;99.90;;;;;;4851127;29;20061;-62
2022/07/01 00:25:26;;;;;;;10.15;5.38;;;21.10;99.90;;;;;;4847261;29;20050;-64
2022/07/01 00:27:54;;;;;;;7.97;5.20;;;21.00;99.90;;;;;;4855074;29;20157;-64
2022/07/01 00:30:21;;;;;;;11.73;5.72;;;20.90;99.90;;;;;;4863991;29;20049;-63
2022/07/01 00:32:49;;;;;;;9.73;4.70;;;20.90;99.90;;;;;;4848387;29;20046;-64
2022/07/01 00:35:16;;;;;;;8.30;4.70;;;20.80;99.90;;;;;;4841202;29;20085;-65
2022/07/01 00:37:44;;;;;;;7.68;5.20;;;20.80;99.90;;;;;;4846487;29;20053;-64
2022/07/01 00:40:12;;;;;;;7.97;5.15;;;20.70;99.90;;;;;;4853663;29;20521;-64
2022/07/01 00:42:40;;;;;;;11.88;5.20;;;20.70;99.90;;;;;;4853927;29;20046;-64
2022/07/01 00:45:11;;;;;;;7.95;4.72;;;20.70;99.90;;;;;;4855205;29;20084;-65
2022/07/01 00:47:40;;;;;;;9.80;4.93;;;20.60;99.90;;;;;;4853370;29;20424;-64
2022/07/01 00:50:10;;;;;;;6.88;4.80;;;20.60;99.90;;;;;;4853310;29;20787;-63
2022/07/01 00:52:43;;;;;;;7.82;4.60;;;20.50;99.90;;;;;;4848170;29;20616;-64
2022/07/01 00:55:13;;;;;;;9.70;4.55;;;20.50;99.90;;;;;;4848806;29;20509;-62
2022/07/01 00:57:42;;;;;;;10.00;5.00;;;20.40;99.90;;;;;;4858377;29;20487;-64
2022/07/01 01:00:17;;;;;;;9.05;4.72;;;20.40;99.90;;;;;;4842994;29;20105;-64
2022/07/01 01:02:44;;;;;;;8.63;4.75;;;20.40;99.90;;;;;;4856302;29;20132;-64
2022/07/01 01:05:12;;;;;;;9.25;4.72;;;20.30;99.90;;;;;;4857682;29;20057;-65
2022/07/01 01:07:39;;;;;;;9.73;4.40;;;20.10;99.90;;;;;;4869268;29;20046;-64
2022/07/01 01:10:07;;;;;;;9.40;4.18;;;20.10;99.90;;;;;;4849514;29;20420;-64
2022/07/01 01:12:35;;;;;;;9.18;4.32;;;19.90;99.90;;;;;;4856026;29;20517;-64
2022/07/01 01:15:02;;;;;;;6.60;3.97;;;19.80;99.90;;;;;;4857369;29;20055;-65
2022/07/01 01:17:30;;;;;;;10.60;4.18;;;19.70;99.90;;;;;;4848223;29;20118;-66
2022/07/01 01:19:59;;;;;;;9.05;3.80;;;19.60;99.90;;;;;;4858492;29;20058;-64
2022/07/01 01:22:26;;;;;;;6.60;3.78;;;19.60;99.90;;;;;;4859192;29;20571;-64
2022/07/01 01:24:53;;;;;;;9.90;4.18;;;19.60;99.90;;;;;;4858985;29;20512;-65
2022/07/01 01:27:21;;;;;;;10.00;3.60;;;19.60;99.90;;;;;;4859292;29;20155;-64
2022/07/01 01:29:48;;;;;;;5.80;3.38;;;19.50;99.90;;;;;;4841821;29;20057;-64
2022/07/01 01:32:16;;;;;;;6.78;3.17;;;19.50;99.90;;;;;;4846071;29;20492;-64
2022/07/01 01:34:43;;;;;;;6.13;3.22;;;19.30;99.90;;;;;;4859389;29;20530;-64
2022/07/01 01:37:10;;;;;;;4.78;2.90;;;19.10;99.90;;;;;;4845959;29;20045;-64
2022/07/01 01:39:37;;;;;;;6.93;3.35;;;19.00;99.90;;;;;;4850223;29;20089;-64
2022/07/01 01:42:05;;;;;;;4.55;2.80;;;18.80;99.90;;;;;;4842314;29;20116;-63
2022/07/01 01:44:33;;;;;;;7.05;3.42;;;18.70;99.90;;;;;;4859028;29;20157;-63
2022/07/01 01:47:01;;;;;;;6.47;3.60;;;18.60;99.90;;;;;;4840977;29;20056;-67
2022/07/01 01:49:28;;;;;;;5.75;3.70;;;18.70;99.90;;;;;;4846593;29;20505;-65
2022/07/01 01:51:59;;;;;;;6.75;3.38;;;18.70;99.90;;;;;;4844460;29;20058;-65
2022/07/01 01:54:27;;;;;;;4.93;3.25;;;18.60;99.90;;;;;;4846017;29;20033;-65
2022/07/01 01:56:55;;;;;;;6.68;2.90;;;18.60;99.90;;;;;;4846483;29;20049;-65
2022/07/01 01:59:22;;;;;;;5.63;2.78;;;18.70;99.90;;;;;;4839777;29;20049;-65
2022/07/01 02:01:49;;;;;;;6.95;2.70;;;18.70;99.90;;;;;;4844185;29;20501;-65
2022/07/01 02:04:17;;;;;;;5.07;3.10;;;18.60;99.90;;;;;;4854528;29;20140;-64
2022/07/01 02:06:44;;;;;;;4.18;2.88;;;18.60;99.90;;;;;;4872858;29;20560;-64
2022/07/01 02:09:13;;;;;;;5.65;3.17;;;18.60;99.90;;;;;;4844288;29;20075;-65
2022/07/01 02:11:40;;;;;;;4.35;2.50;;;18.60;99.90;;;;;;4830594;29;20049;-65
2022/07/01 02:14:07;;;;;;;5.15;2.70;;;18.60;99.90;;;;;;4860987;29;20058;-65
2022/07/01 02:16:34;;;;;;;4.57;2.90;;;18.60;99.90;;;;;;4844654;29;20413;-65
2022/07/01 02:19:03;;;;;;;7.05;2.78;;;18.60;99.90;;;;;;4858293;29;20061;-63
2022/07/01 02:21:30;;;;;;;6.63;2.72;;;18.60;99.90;;;;;;4841121;29;20057;-63
2022/07/01 02:23:58;;;;;;;4.82;2.80;;;18.40;99.90;;;;;;4840026;29;20042;-64
2022/07/01 02:26:25;;;;;;;5.35;3.35;;;18.40;99.90;;;;;;4842456;29;20132;-65
2022/07/01 02:28:52;;;;;;;4.38;2.53;;;18.40;99.90;;;;;;4871231;29;20528;-64
2022/07/01 02:31:20;;;;;;;5.15;2.92;;;18.40;99.90;;;;;;4847466;29;20517;-65
2022/07/01 02:33:48;;;;;;;4.20;2.60;;;18.30;99.90;;;;;;4852697;29;20042;-64
2022/07/01 02:36:15;;;;;;;6.13;2.85;;;18.30;99.90;;;;;;4853805;29;20062;-64
2022/07/01 02:38:43;;;;;;;6.47;2.55;;;18.40;99.90;;;;;;4854566;29;20169;-63
2022/07/01 02:41:10;;;;;;;4.80;2.80;;;18.40;99.90;;;;;;4849433;29;20050;-64
2022/07/01 02:43:38;;;;;;;4.10;2.83;;;18.20;99.90;;;;;;4851698;29;20111;-64
2022/07/01 02:46:05;;;;;;;5.97;3.08;;;18.10;99.90;;;;;;4852314;29;20128;-64
2022/07/01 02:48:33;;;;;;;6.60;3.40;;;18.10;99.90;;;;;;4854246;29;20053;-64
2022/07/01 02:51:00;;;;;;;6.95;3.33;;;18.00;99.90;;;;;;4843860;29;20157;-65
2022/07/01 02:53:28;;;;;;;4.43;3.10;;;18.10;99.90;;;;;;4856215;29;20140;-64
2022/07/01 02:55:55;;;;;;;4.30;2.83;;;17.90;99.90;;;;;;4861300;29;20056;-65
2022/07/01 02:58:22;;;;;;;4.32;2.80;;;17.90;99.90;;;;;;4857792;29;20568;-63
2022/07/01 03:00:52;;;;;;;5.10;3.20;;;17.90;99.90;;;;;;4835844;29;20201;-63
2022/07/01 03:03:20;;;;;;;5.55;2.92;;;17.90;99.90;;;;;;4851482;29;20110;-68
2022/07/01 03:05:48;;;;;;;5.75;3.47;;;17.90;99.90;;;;;;4852380;29;20053;-64
2022/07/01 03:08:16;;;;;;;4.13;2.65;;;17.80;99.90;;;;;;4854444;29;20045;-63
2022/07/01 03:10:43;;;;;;;3.92;2.78;;;17.70;99.90;;;;;;4846003;29;20054;-64
2022/07/01 03:13:10;;;;;;;7.20;2.90;;;17.70;99.90;;;;;;4844961;29;20156;-65
2022/07/01 03:15:38;;;;;;;4.22;2.50;;;17.70;99.90;;;;;;4848189;29;20162;-64
2022/07/01 03:18:05;;;;;;;5.05;2.88;;;17.80;99.90;;;;;;4855944;29;20585;-64
2022/07/01 03:20:33;;;;;;;7.63;3.10;;;17.90;99.90;;;;;;4862285;29;20129;-63
2022/07/01 03:23:00;;;;;;;5.88;3.08;;;17.80;99.90;;;;;;4854440;29;20637;-64
2022/07/01 03:25:28;;;;;;;5.03;2.75;;;17.70;99.90;;;;;;4849995;29;20481;-64
2022/07/01 03:27:55;;;;;;;4.15;2.55;;;17.60;99.90;;;;;;4852540;29;20068;-65
2022/07/01 03:30:22;;;;;;;5.32;3.22;;;17.70;99.90;;;;;;4847205;29;20130;-64
2022/07/01 03:32:50;;;;;;;4.28;2.80;;;17.60;99.90;;;;;;4843122;29;20465;-65
2022/07/01 03:35:35;;;;;;;6.72;3.15;;;17.60;99.90;;;;;;4853242;29;20056;-64
2022/07/01 03:38:03;;;;;;;4.90;2.63;;;17.50;99.90;;;;;;4839155;29;20810;-65
2022/07/01 03:40:32;;;;;;;6.25;2.60;;;17.40;99.90;;;;;;4854605;29;20041;-65
2022/07/01 03:43:00;;;;;;;5.32;2.97;;;17.50;99.90;;;;;;4840389;29;20405;-65
2022/07/01 03:45:27;;;;;;;4.88;2.75;;;17.50;99.90;;;;;;4854979;29;20037;-65
2022/07/01 03:47:55;;;;;;;4.88;2.75;;;17.50;99.90;;;;;;4856986;29;20106;-65
2022/07/01 03:50:23;;;;;;;4.30;2.53;;;17.50;99.90;;;;;;4830646;29;20058;-65
2022/07/01 03:54:29;;;;;;;5.47;3.10;;;17.50;99.90;;;;;;4856590;29;20045;-65
2022/07/01 03:55:39;;;;;;;5.82;2.95;;;17.50;99.90;;;;;;4836125;29;20513;-65
2022/07/01 03:58:06;;;;;;;4.55;3.00;;;17.40;99.90;;;;;;4855981;29;20520;-63
2022/07/01 04:00:35;;;;;;;4.05;2.75;;;17.50;99.90;;;;;;4852074;29;20052;-64
2022/07/01 04:03:06;;;;;;;5.25;2.60;;;17.40;99.90;;;;;;4856187;29;20054;-64
2022/07/01 04:05:35;;;;;;;4.10;2.60;;;17.40;99.90;;;;;;4852941;29;20429;-64
2022/07/01 04:08:08;;;;;;;3.78;2.70;;;17.30;99.90;;;;;;4845757;29;20864;-64
2022/07/01 04:10:35;;;;;;;4.80;3.10;;;17.30;99.90;;;;;;4853355;29;20453;-64
2022/07/01 04:13:03;;;;;;;4.70;2.85;;;17.30;99.90;;;;;;4855171;29;20496;-63
2022/07/01 04:15:51;;;;;;;5.10;2.80;;;17.20;99.90;;;;;;4856004;29;20513;-64
2022/07/01 04:18:18;;;;;;;5.00;3.22;;;17.10;99.90;;;;;;4856618;29;20128;-64
2022/07/01 04:23:33;;;;;;;4.40;2.80;;;17.00;99.90;;;;;;4844539;29;20072;-64
2022/07/01 04:26:01;;;;;;;4.72;2.90;;;17.00;99.90;;;;;;4852822;29;20145;-64
2022/07/01 04:28:49;;;;;;;5.97;3.60;;;16.90;99.90;;;;;;4844646;29;20045;-65
2022/07/01 04:31:17;;;;;;;6.03;3.65;;;16.90;99.90;;;;;;4846956;29;20465;-65
2022/07/01 04:33:50;;;;;;;6.10;3.47;;;16.70;99.90;;;;;;4844932;29;20589;-65
2022/07/01 04:36:18;;;;;;;6.13;3.47;;;16.60;99.90;;;;;;4830846;29;20473;-66
2022/07/01 04:38:46;;;;;;;7.38;3.78;;;16.60;99.90;;;;;;4843935;29;20050;-66
2022/07/01 04:44:17;;;;;;;6.10;4.32;;;16.40;99.90;;;;;;4829218;29;20111;-66
2022/07/01 04:46:44;;;;;;;8.02;4.32;;;16.40;99.90;;;;;;4834062;29;20513;-66
2022/07/01 04:49:12;;;;;;;8.18;4.47;;;16.40;99.90;;;;;;4829811;29;20570;-66
2022/07/01 04:51:39;;;;;;;6.78;4.32;;;16.50;99.90;;;;;;4826685;29;20050;-67
2022/07/01 04:54:08;;;;;;;6.18;3.92;;;16.50;99.90;;;;;;4821402;29;20054;-67
2022/07/01 04:56:37;;;;;;;7.30;4.50;;;16.50;99.90;;;;;;4833194;29;20089;-67
2022/07/01 04:59:10;;;;;;;6.63;4.82;;;16.50;99.90;;;;;;4832988;29;20133;-66
2022/07/01 05:01:37;;;;;;;6.90;4.38;;;16.30;99.90;;;;;;4824566;29;20050;-66
2022/07/01 05:04:05;;;;;;;6.88;4.72;;;16.30;99.90;;;;;;4834466;29;20555;-67
2022/07/01 05:06:33;;;;;;;7.18;4.85;;;16.20;99.90;;;;;;4835000;29;20050;-66
2022/07/01 05:09:01;;;;;;;8.07;5.25;;;16.10;99.90;;;;;;4833133;29;20293;-67
2022/07/01 05:11:28;;;;;;;6.40;4.72;;;16.30;99.90;;;;;;4824574;29;20083;-67
2022/07/01 05:13:55;;;;;;;7.07;4.57;;;16.30;99.90;;;;;;4834815;29;20081;-66
2022/07/01 05:16:23;;;;;;;7.18;4.60;;;16.50;99.90;;;;;;4814219;29;20201;-67
2022/07/01 05:24:23;;;;;;;7.40;4.45;;;16.60;99.90;;;;;;4853484;29;20056;-67
2022/07/01 05:26:50;;;;;;;6.18;4.40;;;16.60;99.90;;;;;;4844090;29;20045;-66
2022/07/01 05:29:18;;;;;;;6.32;4.30;;;16.50;99.90;;;;;;4853930;29;20573;-68
2022/07/01 05:31:46;;;;;;;6.60;4.80;;;16.50;99.90;;;;;;4855363;29;20058;-65
2022/07/01 05:34:13;;;;;;;5.32;3.70;;;16.40;99.90;;;;;;4834778;29;20130;-66
2022/07/01 05:36:40;;;;;;;13.48;4.05;;;16.40;99.90;;;;;;4845154;29;20123;-66
2022/07/01 05:39:08;;;;;;;4.60;3.15;;;16.30;99.90;;;;;;4829333;29;20513;-66
2022/07/01 05:41:36;;;;;;;5.95;3.42;;;16.30;99.90;;;;;;4844269;29;20038;-66
2022/07/01 05:44:03;;;;;;;5.65;3.65;;;16.20;99.90;;;;;;4845983;29;20053;-67
2022/07/01 05:46:30;;;;;;;3.70;2.50;;;16.30;99.90;;;;;;4842533;29;20038;-68
2022/07/01 05:48:58;;;;;;;5.63;2.60;;;16.20;99.90;;;;;;4852158;29;20054;-67
2022/07/01 05:51:25;;;;;;;4.85;2.60;;;16.20;99.90;;;;;;4849347;29;20061;-68
2022/07/01 05:53:53;;;;;;;3.42;2.28;;;16.10;99.90;;;;;;4846301;29;20592;-68
2022/07/01 05:56:21;;;;;;;5.28;2.72;;;16.00;99.90;;;;;;4850504;29;20639;-68
2022/07/01 05:58:48;;;;;;;4.15;2.70;;;15.90;99.90;;;;;;4847915;29;20053;-67
2022/07/01 06:01:15;;;;;;;4.72;3.33;;;15.80;99.90;;;;;;4841411;29;20042;-68
2022/07/01 06:03:43;;;;;;;4.63;2.88;;;15.80;99.90;;;;;;4840032;29;20045;-67
2022/07/01 06:06:11;;;;;;;4.88;2.45;;;15.70;99.90;;;;;;4846505;29;20137;-68
2022/07/01 06:08:38;;;;;;;5.65;2.97;;;15.70;99.90;;;;;;4852009;29;20046;-68
2022/07/01 06:11:05;;;;;;;4.88;3.17;;;15.70;99.90;;;;;;4858645;29;20067;-69
2022/07/01 06:13:33;;;;;;;5.43;3.10;;;15.70;99.90;;;;;;4849474;29;20585;-69
2022/07/01 06:16:00;;;;;;;5.90;2.92;;;15.70;99.90;;;;;;4862754;29;20046;-69
2022/07/01 06:18:27;;;;;;;5.22;3.00;;;15.60;99.90;;;;;;4840702;29;20103;-69
2022/07/01 06:20:55;;;;;;;3.47;2.50;;;15.60;99.90;;;;;;4846093;29;20474;-70
2022/07/01 06:23:22;;;;;;;8.00;4.00;;;15.50;99.90;;;;;;4858908;29;20045;-69
2022/07/01 06:25:50;;;;;;;5.28;3.40;;;15.60;99.90;;;;;;4860669;29;20125;-70
2022/07/01 06:28:17;;;;;;;4.35;3.15;;;15.50;99.90;;;;;;4870986;29;20049;-68
2022/07/01 06:30:45;;;;;;;3.67;2.40;;;15.60;99.90;;;;;;4857997;29;20055;-68
2022/07/01 06:33:13;;;;;;;6.65;2.55;;;15.70;99.90;;;;;;4856622;29;20076;-69
2022/07/01 06:35:40;;;;;;;3.75;2.22;;;15.70;99.90;;;;;;4858823;29;20401;-69
2022/07/01 06:38:08;;;;;;;3.17;2.28;;;15.70;99.90;;;;;;4857967;29;20053;-69
2022/07/01 06:40:35;;;;;;;3.30;2.40;;;15.90;99.90;;;;;;4841210;29;20088;-69
2022/07/01 06:43:03;;;;;;;5.68;2.30;;;16.10;99.90;;;;;;4858236;29;20060;-68
2022/07/01 06:45:31;;;;;;;3.28;1.80;;;16.20;99.90;;;;;;4839193;29;20053;-67
2022/07/01 06:47:58;;;;;;;4.40;2.03;;;16.20;99.90;;;;;;4842655;29;20054;-67
2022/07/01 06:50:25;;;;;;;3.08;1.90;;;16.00;99.90;;;;;;4851918;29;20487;-69
2022/07/01 06:52:53;;;;;;;3.65;2.10;;;15.90;99.90;;;;;;4839567;29;20062;-68
2022/07/01 06:55:20;;;;;;;3.67;2.08;;;15.90;99.90;;;;;;4851871;29;20049;-69
2022/07/01 06:57:47;;;;;;;4.22;2.20;;;15.90;99.90;;;;;;4842878;29;20105;-67
2022/07/01 07:00:15;;;;;;;3.35;1.90;;;15.90;99.90;;;;;;4846580;29;20065;-68
2022/07/01 07:02:42;;;;;;;3.47;1.70;;;15.80;99.90;;;;;;4853530;29;20140;-68
2022/07/01 07:05:09;;;;;;;2.60;1.42;;;15.80;99.90;;;;;;4838111;29;20061;-67
2022/07/01 07:07:38;;;;;;;2.28;1.60;;;15.80;99.90;;;;;;4844931;29;20560;-68
2022/07/01 07:10:05;;;;;;;3.13;1.70;;;15.80;99.90;;;;;;4844464;29;20046;-68
2022/07/01 07:12:33;;;;;;;3.25;1.85;;;15.90;99.90;;;;;;4854189;29;20057;-69
2022/07/01 07:15:00;;;;;;;4.28;2.20;;;15.90;99.90;;;;;;4849066;29;20137;-68
2022/07/01 07:17:28;;;;;;;3.05;1.98;;;16.10;99.90;;;;;;4841963;29;20046;-69
2022/07/01 07:19:55;;;;;;;3.88;2.53;;;16.20;99.90;;;;;;4844593;29;20539;-69
2022/07/01 07:22:23;;;;;;;3.28;2.25;;;16.30;99.90;;;;;;4844871;29;20140;-70
2022/07/01 07:24:50;;;;;;;3.80;2.53;;;16.30;99.90;;;;;;4843057;29;20045;-68
2022/07/01 07:27:17;;;;;;;3.42;2.20;;;16.10;99.90;;;;;;4844421;29;20072;-68
2022/07/01 07:29:45;;;;;;;3.40;2.58;;;15.90;99.90;;;;;;4847329;29;20041;-68
2022/07/01 07:32:12;;;;;;;6.63;3.25;;;16.10;99.90;;;;;;4842739;29;20543;-67
2022/07/01 07:34:40;;;;;;;4.75;2.70;;;16.10;99.90;;;;;;4841595;29;20137;-67
2022/07/01 07:37:08;;;;;;;4.63;2.92;;;16.00;99.90;;;;;;4848195;29;20049;-68
2022/07/01 07:39:35;;;;;;;5.38;3.22;;;16.00;99.90;;;;;;4853949;29;20037;-68
2022/07/01 07:42:05;;;;;;;7.78;3.72;;;15.90;99.90;;;;;;4845868;29;20490;-69
2022/07/01 07:44:32;;;;;;;5.20;3.35;;;15.70;99.90;;;;;;4851516;29;20552;-68
2022/07/01 07:47:00;;;;;;;5.60;3.70;;;15.50;99.90;;;;;;4838345;29;20153;-68
2022/07/01 07:49:27;;;;;;;7.55;3.67;;;15.50;99.90;;;;;;4869757;29;20504;-68
2022/07/01 07:51:55;;;;;;;5.75;3.95;;;15.40;99.90;;;;;;4854829;29;20046;-67
2022/07/01 07:54:22;;;;;;;6.22;3.78;;;15.50;99.90;;;;;;4868754;29;20046;-67
2022/07/01 07:56:50;;;;;;;7.40;3.60;;;15.30;99.90;;;;;;4847675;29;20050;-68
2022/07/01 07:59:22;;;;;;;5.18;3.90;;;15.40;99.90;;;;;;4851384;29;20049;-69
2022/07/01 08:01:49;;;;;;;6.07;3.92;;;15.40;99.90;;;;;;4864344;29;20675;-67
2022/07/01 08:04:16;;;;;;;5.75;3.80;;;15.50;99.90;;;;;;4851523;29;20049;-68
2022/07/01 08:06:44;;;;;;;5.70;3.70;;;15.50;99.90;;;;;;4853376;29;20041;-67
2022/07/01 08:09:11;;;;;;;6.45;4.13;;;15.50;99.90;;;;;;4854573;29;20053;-67
2022/07/01 08:11:38;;;;;;;7.55;3.90;;;15.50;99.90;;;;;;4856459;29;20045;-68
2022/07/01 08:14:06;;;;;;;5.55;3.90;;;15.50;99.90;;;;;;4856245;29;20473;-67
2022/07/01 08:16:34;;;;;;;6.15;3.90;;;15.60;99.90;;;;;;4851331;29;20058;-68
2022/07/01 08:19:02;;;;;;;4.90;3.33;;;15.70;99.90;;;;;;4844355;29;20053;-68
2022/07/01 08:21:30;;;;;;;7.18;3.70;;;15.90;99.90;;;;;;4849617;29;20145;-68
2022/07/01 08:23:57;;;;;;;5.88;3.88;;;15.90;99.90;;;;;;4850166;29;20041;-68
2022/07/01 08:26:24;;;;;;;6.28;3.75;;;15.90;99.90;;;;;;4854110;29;20395;-69
2022/07/01 08:28:51;;;;;;;5.10;3.33;;;15.90;99.90;;;;;;4856279;29;20045;-68
2022/07/01 08:31:19;;;;;;;5.25;3.28;;;16.10;99.90;;;;;;4852857;29;20144;-69
2022/07/01 08:33:46;;;;;;;6.22;3.35;;;16.20;99.90;;;;;;4837618;29;20128;-68
2022/07/01 08:36:13;;;;;;;7.03;3.53;;;16.20;99.90;;;;;;4855582;29;20067;-68
2022/07/01 08:38:41;;;;;;;5.93;3.13;;;16.20;99.90;;;;;;4846818;29;20045;-68
2022/07/01 08:41:09;;;;;;;6.63;3.53;;;16.20;99.90;;;;;;4846412;29;20543;-68
2022/07/01 08:43:38;;;;;;;7.85;3.65;;;16.20;99.90;;;;;;4854570;29;20045;-68
2022/07/01 08:46:07;;;;;;;6.05;3.20;;;16.10;99.90;;;;;;4846781;29;20393;-68
2022/07/01 08:48:34;;;;;;;5.30;3.08;;;16.20;99.90;;;;;;4855541;29;20544;-69
2022/07/01 08:51:03;;;;;;;5.25;3.30;;;16.10;99.90;;;;;;4847348;29;20211;-68
2022/07/01 08:53:31;;;;;;;6.28;3.38;;;15.90;99.90;;;;;;4841026;29;20050;-67
2022/07/01 08:58:45;;;;;;;5.90;3.33;;;15.80;99.90;;;;;;4848226;29;20529;-69
2022/07/01 09:01:24;;;;;;;4.95;3.20;;;15.80;99.90;;;;;;4838095;29;20508;-69
2022/07/01 09:03:54;;;;;;;4.78;3.10;;;15.90;99.90;;;;;;4850678;29;20065;-69
2022/07/01 09:06:23;;;;;;;5.82;3.50;;;15.90;99.90;;;;;;4832078;29;20072;-69
2022/07/01 09:08:51;;;;;;;4.35;2.90;;;15.80;99.90;;;;;;4844913;29;20046;-69
2022/07/01 09:11:21;;;;;;;6.50;3.30;;;15.70;99.90;;;;;;4845166;29;20423;-69
2022/07/01 09:14:11;;;;;;;4.85;2.70;;;15.70;99.90;;;;;;4841542;29;20145;-69
2022/07/01 09:16:46;;;;;;;5.22;2.88;;;15.70;99.90;;;;;;4847088;29;20045;-69
2022/07/01 09:19:15;;;;;;;5.22;3.20;;;15.80;99.90;;;;;;4851167;29;20412;-69
2022/07/01 09:21:56;;;;;;;4.70;3.00;;;15.60;99.90;;;;;;4873411;29;20038;-69
2022/07/01 09:24:28;;;;;;;4.75;3.13;;;15.60;99.90;;;;;;4855802;29;20049;-69
2022/07/01 09:26:55;;;;;;;;;;;15.80;99.90;;;;;;4848359;29;20520;-69
2022/07/01 09:29:31;;;;;;;5.38;2.85;;;15.80;99.90;;;;;;4833118;29;19924;-69
2022/07/01 09:32:01;;;;;;;5.00;2.60;;;15.80;99.90;;;;;;4854010;29;20428;-69
2022/07/01 09:34:39;;;;;;;5.45;3.20;;;16.10;99.90;;;;;;4858659;29;20054;-69
2022/07/01 09:37:07;;;;;;;6.15;3.50;;;15.70;99.90;;;;;;4842149;29;20452;-69
2022/07/01 09:39:51;;;;;;;5.88;3.45;;;15.70;99.90;;;;;;4849097;29;20049;-70
2022/07/01 09:42:21;;;;;;;5.13;2.88;;;15.80;99.90;;;;;;4857178;29;20045;-68
2022/07/01 09:45:07;;;;;;;7.03;3.88;;;15.80;99.90;;;;;;4856697;29;20456;-68
2022/07/01 09:47:38;;;;;;;4.75;3.05;;;16.00;99.90;;;;;;4851846;29;20034;-68
2022/07/01 09:50:07;;;;;;;5.03;2.40;;;15.80;99.90;;;;;;4829155;29;20054;-69
2022/07/01 09:52:36;;;;;;;6.95;3.30;;;16.00;99.90;;;;;;4836754;29;20063;-68
2022/07/01 09:55:05;;;;;;;4.35;2.92;;;15.90;99.90;;;;;;4845632;29;20054;-68
2022/07/01 09:57:33;;;;;;;7.00;2.65;;;16.00;99.90;;;;;;4833880;29;20116;-68
2022/07/01 10:00:00;;;;;;;3.33;2.15;;;16.00;99.90;;;;;;4856742;29;20046;-68
2022/07/01 10:02:33;;;;;;;3.55;2.20;;;16.40;99.90;;;;;;4856148;29;20462;-68
2022/07/01 10:05:11;;;;;;;5.85;2.38;;;16.70;99.90;;;;;;4857805;29;20041;-68
2022/07/01 10:07:59;;;;;;;5.35;2.78;;;17.10;99.90;;;;;;4864886;29;20122;-69
2022/07/01 10:10:49;;;;;;;3.60;2.40;;;17.10;99.90;;;;;;4855431;29;20053;-69
2022/07/01 10:13:21;;;;;;;3.95;2.50;;;17.20;99.90;;;;;;4841268;29;20219;-68
2022/07/01 10:15:49;;;;;;;;;;;17.20;99.90;;;;;;4845596;29;20540;-68
2022/07/01 10:18:26;;;;;;;3.88;2.30;;;17.30;99.90;;;;;;4858016;29;19951;-68
2022/07/01 10:20:56;;;;;;;6.00;2.50;;;17.40;99.90;;;;;;4846842;29;20046;-68
2022/07/01 10:23:28;;;;;;;3.50;2.10;;;17.10;99.90;;;;;;4845105;29;20134;-68
2022/07/01 10:26:03;;;;;;;3.50;1.98;;;17.00;99.90;;;;;;4851531;29;20476;-69
2022/07/01 10:28:49;;;;;;;3.67;2.03;;;17.00;99.90;;;;;;4855781;29;21007;-70
2022/07/01 10:31:18;;;;;;;4.40;2.38;;;16.70;99.90;;;;;;4852119;29;20509;-69
2022/07/01 10:33:52;;;;;;;3.90;2.58;;;16.70;99.90;;;;;;4857953;29;20361;-69
2022/07/01 10:36:25;;;;;;;5.45;2.70;;;16.80;99.90;;;;;;4857777;29;20159;-69
2022/07/01 10:41:30;;;;;;;3.95;2.60;;;16.50;99.90;;;;;;4858403;29;20061;-70
2022/07/01 10:44:01;;;;;;;3.88;2.60;;;16.70;99.90;;;;;;4858008;29;20461;-69
2022/07/01 10:46:45;;;;;;;4.70;2.55;;;16.70;99.90;;;;;;4852549;29;20056;-69
2022/07/01 10:49:18;;;;;;;4.13;1.95;;;16.60;99.90;;;;;;4857982;29;20537;-69
2022/07/01 10:51:52;;;;;;;3.45;2.20;;;16.50;99.90;;;;;;4856236;29;20041;-68
2022/07/01 10:54:43;;;;;;;5.93;2.40;;;16.40;99.90;;;;;;4856986;29;20076;-69
2022/07/01 10:57:19;;;;;;;4.15;3.00;;;16.40;99.90;;;;;;4841750;29;20659;-68
2022/07/01 11:00:16;;;;;;;4.97;3.00;;;16.20;99.90;;;;;;4857727;29;20484;-69
2022/07/01 11:02:43;;;;;;;5.32;2.83;;;16.10;99.90;;;;;;4863128;29;20104;-70
2022/07/01 11:05:15;;;;;;;6.35;3.35;;;15.70;99.90;;;;;;4851428;29;20052;-67
2022/07/01 11:07:45;;;;;;;5.57;3.65;;;15.50;99.90;;;;;;4856032;29;20049;-68
2022/07/01 11:10:18;;;;;;;5.15;3.33;;;15.40;99.90;;;;;;4849820;29;20053;-68
2022/07/01 11:12:48;;;;;;;5.63;3.55;;;15.50;99.90;;;;;;4848359;29;20482;-67
2022/07/01 11:15:17;;;;;;;5.55;3.55;;;15.50;99.90;;;;;;4837302;29;20504;-67
2022/07/01 11:17:47;;;;;;;5.10;3.40;;;15.50;99.90;;;;;;4859442;29;20053;-68
2022/07/01 11:20:15;;;;;;;4.22;3.15;;;15.40;99.90;;;;;;4849076;29;20113;-68
2022/07/01 11:22:49;;;;;;;7.60;3.65;;;15.20;99.90;;;;;;4857290;29;20081;-68
2022/07/01 11:25:19;;;;;;;5.28;3.53;;;15.20;99.90;;;;;;4857403;29;20489;-69
2022/07/01 11:27:51;;;;;;;6.18;3.60;;;15.20;99.90;;;;;;4855845;29;20510;-67
2022/07/01 11:30:20;;;;;;;4.70;3.25;;;15.20;99.90;;;;;;4836299;29;20081;-68
2022/07/01 11:32:53;;;;;;;4.28;2.97;;;15.10;99.90;;;;;;4851770;29;20500;-69
2022/07/01 11:41:02;;;;;;;5.35;3.63;;;15.50;99.90;;;;;;4839585;29;20064;-69
2022/07/01 11:43:33;;;;;;;4.97;3.38;;;15.50;99.90;;;;;;4849802;29;20469;-69
2022/07/01 11:46:03;;;;;;;6.15;3.85;;;15.40;99.90;;;;;;4855093;29;20060;-69
2022/07/01 11:48:49;;;;;;;5.20;3.95;;;15.30;99.90;;;;;;4858048;29;20050;-68
2022/07/01 11:51:22;;;;;;;4.95;3.40;;;15.30;99.90;;;;;;4844127;29;20509;-68
2022/07/01 11:53:54;;;;;;;4.07;2.63;;;15.40;99.90;;;;;;4855239;29;20056;-69
2022/07/01 11:56:33;;;;;;;4.53;3.20;;;15.40;99.90;;;;;;4855156;29;20504;-69
2022/07/01 11:59:02;;;;;;;4.20;2.80;;;15.50;99.90;;;;;;4863756;29;20054;-69
2022/07/01 12:01:32;;;;;;;4.28;2.55;;;15.70;99.90;;;;;;4850498;29;20042;-69
2022/07/01 12:04:02;;;;;;;5.07;3.03;;;15.60;99.90;;;;;;4867638;29;20060;-69
2022/07/01 12:06:30;;;;;;;4.15;2.50;;;15.60;99.90;;;;;;4850442;29;20361;-69
2022/07/01 12:08:58;;;;;;;4.38;2.70;;;15.90;99.90;;;;;;4848721;29;20074;-69
2022/07/01 12:11:28;;;;;;;6.40;2.92;;;15.80;99.90;;;;;;4831683;29;20042;-69
2022/07/01 12:13:58;;;;;;;5.35;2.70;;;15.70;99.90;;;;;;4831664;29;20052;-68
2022/07/01 12:16:26;;;;;;;3.45;2.10;;;15.80;99.90;;;;;;4835269;29;20070;-69
2022/07/01 12:18:56;;;;;;;5.15;2.50;;;15.60;99.90;;;;;;4846724;29;20060;-68
2022/07/01 12:21:25;;;;;;;3.63;2.42;;;15.60;99.90;;;;;;4836542;29;20525;-69
2022/07/01 12:24:09;;;;;;;3.42;2.33;;;15.50;99.90;;;;;;4854171;29;20068;-69
2022/07/01 12:27:02;;;;;;;3.97;2.17;;;15.60;99.90;;;;;;4855138;29;20441;-69
2022/07/01 12:29:53;;;;;;;3.80;2.33;;;15.50;99.90;;;;;;4855490;29;20057;-69
2022/07/01 12:32:24;;;;;;;4.45;2.50;;;15.50;99.90;;;;;;4855907;29;20072;-68
2022/07/01 12:35:01;;;;;;;3.78;2.38;;;15.60;99.90;;;;;;4824895;29;20144;-69
2022/07/01 12:37:33;;;;;;;4.70;2.33;;;15.90;99.90;;;;;;4843653;29;20057;-69
2022/07/01 12:40:09;;;;;;;3.60;2.30;;;15.90;99.90;;;;;;4834651;29;20124;-69
2022/07/01 12:42:38;;;;;;;6.70;2.58;;;15.80;99.90;;;;;;4846772;29;20061;-69
2022/07/01 12:45:11;;;;;;;4.68;2.50;;;15.70;99.90;;;;;;4854459;29;20512;-71
2022/07/01 12:47:42;;;;;;;3.60;2.42;;;15.60;99.90;;;;;;4850455;29;20061;-69
2022/07/01 12:50:20;;;;;;;3.90;2.30;;;15.50;99.90;;;;;;4847038;29;20054;-69
2022/07/01 12:53:02;;;;;;;3.10;2.10;;;15.50;99.90;;;;;;4861382;29;20521;-71
2022/07/01 12:55:35;;;;;;;4.45;2.45;;;15.50;99.90;;;;;;4857040;29;20042;-69
2022/07/01 12:58:06;;;;;;;4.47;2.55;;;15.30;99.90;;;;;;4820991;29;20060;-70
2022/07/01 13:00:34;;;;;;;4.88;2.28;;;15.30;99.90;;;;;;4823910;29;20045;-70
2022/07/01 13:03:03;;;;;;;6.45;2.40;;;15.30;99.90;;;;;;4865713;29;20049;-70
2022/07/01 13:05:33;;;;;;;3.78;2.20;;;15.20;99.90;;;;;;4858673;29;20041;-70
2022/07/01 13:08:01;;;;;;;4.90;2.50;;;14.90;99.90;;;;;;4847840;29;20049;-69
2022/07/01 13:10:29;;;;;;;6.15;2.65;;;14.80;99.90;;;;;;4854710;29;20533;-70
2022/07/01 13:12:57;;;;;;;4.70;2.67;;;14.80;99.90;;;;;;4859169;29;20056;-69
2022/07/01 13:15:25;;;;;;;5.05;2.63;;;14.70;99.90;;;;;;4859443;29;20072;-69
2022/07/01 13:17:53;;;;;;;5.85;3.05;;;14.50;99.90;;;;;;4863892;29;20460;-69
2022/07/01 13:20:20;;;;;;;6.38;4.00;;;14.60;99.90;;;;;;4872776;29;20508;-69
2022/07/01 13:22:48;;;;;;;5.80;3.00;;;14.60;99.90;;;;;;4858893;29;20063;-69